sensor_id;sensor_type;location;lat;lon;timestamp;temperature;humidity
16814;DHT22;8524;57.650;11.926;2023-04-26T00:01:57;4.90;99.90
16814;DHT22;8524;57.650;11.926;2023-04-26T00:04:25;5.00;99.90
16814;DHT22;8524;57.650;11.926;2023-04-26T00:06:53;5.00;99.90
16814;DHT22;8524;57.650;11.926;2023-04-26T00:09:20;5.10;99.90
16814;DHT22;8524;57.650;11.926;2023-04-26T00:11:47;5.10;99.90
16814;DHT22;8524;57.650;11.926;2023-04-26T00:14:15;5.10;99.90
16814;DHT22;8524;57.650;11.926;2023-04-26T00:16:42;5.20;99.90
16814;DHT22;8524;57.650;11.926;2023-04-26T00:19:10;5.20;99.90
16814;DHT22;8524;57.650;11.926;2023-04-26T00:21:38;5.20;99.90
16814;DHT22;8524;57.650;11.926;2023-04-26T00:24:05;5.40;99.90
16814;DHT22;8524;57.650;11.926;2023-04-26T00:26:33;5.50;99.90
16814;DHT22;8524;57.650;11.926;2023-04-26T00:29:00;5.70;99.90
16814;DHT22;8524;57.650;11.926;2023-04-26T00:31:27;5.70;99.90
16814;DHT22;8524;57.650;11.926;2023-04-26T00:33:54;5.70;99.90
16814;DHT22;8524;57.650;11.926;2023-04-26T00:36:22;5.60;99.90
16814;DHT22;8524;57.650;11.926;2023-04-26T00:38:50;5.50;99.90
16814;DHT22;8524;57.650;11.926;2023-04-26T00:41:17;5.50;99.90
16814;DHT22;8524;57.650;11.926;2023-04-26T00:43:44;5.60;99.90
16814;DHT22;8524;57.650;11.926;2023-04-26T00:46:11;5.50;99.90
16814;DHT22;8524;57.650;11.926;2023-04-26T00:48:38;5.60;99.90
16814;DHT22;8524;57.650;11.926;2023-04-26T00:51:06;5.70;99.90
16814;DHT22;8524;57.650;11.926;2023-04-26T00:53:34;5.70;99.90
16814;DHT22;8524;57.650;11.926;2023-04-26T00:56:02;5.70;99.90
16814;DHT22;8524;57.650;11.926;2023-04-26T00:58:29;5.70;99.90
16814;DHT22;8524;57.650;11.926;2023-04-26T01:00:56;5.80;99.90
16814;DHT22;8524;57.650;11.926;2023-04-26T01:03:24;5.90;99.90
16814;DHT22;8524;57.650;11.926;2023-04-26T01:05:51;5.90;99.90
16814;DHT22;8524;57.650;11.926;2023-04-26T01:08:19;5.80;99.90
16814;DHT22;8524;57.650;11.926;2023-04-26T01:10:48;5.80;99.90
16814;DHT22;8524;57.650;11.926;2023-04-26T01:13:15;5.70;99.90
16814;DHT22;8524;57.650;11.926;2023-04-26T01:15:44;5.60;99.90
16814;DHT22;8524;57.650;11.926;2023-04-26T01:18:11;5.60;99.90
16814;DHT22;8524;57.650;11.926;2023-04-26T01:20:39;5.50;99.90
16814;DHT22;8524;57.650;11.926;2023-04-26T01:23:08;5.50;99.90
16814;DHT22;8524;57.650;11.926;2023-04-26T01:25:36;5.50;99.90
16814;DHT22;8524;57.650;11.926;2023-04-26T01:28:03;5.50;99.90
16814;DHT22;8524;57.650;11.926;2023-04-26T01:30:30;5.70;99.90
16814;DHT22;8524;57.650;11.926;2023-04-26T01:32:57;5.80;99.90
16814;DHT22;8524;57.650;11.926;2023-04-26T01:35:24;5.80;99.90
16814;DHT22;8524;57.650;11.926;2023-04-26T01:37:51;5.80;99.90
16814;DHT22;8524;57.650;11.926;2023-04-26T01:40:20;5.60;99.90
16814;DHT22;8524;57.650;11.926;2023-04-26T01:42:47;5.60;99.90
16814;DHT22;8524;57.650;11.926;2023-04-26T01:45:14;5.50;99.90
16814;DHT22;8524;57.650;11.926;2023-04-26T01:47:42;5.40;99.90
16814;DHT22;8524;57.650;11.926;2023-04-26T01:50:09;5.30;99.90
16814;DHT22;8524;57.650;11.926;2023-04-26T01:52:36;5.30;99.90
16814;DHT22;8524;57.650;11.926;2023-04-26T01:55:04;5.30;99.90
16814;DHT22;8524;57.650;11.926;2023-04-26T01:57:33;5.30;99.90
16814;DHT22;8524;57.650;11.926;2023-04-26T02:00:00;5.30;99.90
16814;DHT22;8524;57.650;11.926;2023-04-26T02:02:27;5.30;99.90
16814;DHT22;8524;57.650;11.926;2023-04-26T02:04:54;5.30;99.90
16814;DHT22;8524;57.650;11.926;2023-04-26T02:07:22;5.30;99.90
16814;DHT22;8524;57.650;11.926;2023-04-26T02:09:49;5.20;99.90
16814;DHT22;8524;57.650;11.926;2023-04-26T02:12:16;5.20;99.90
16814;DHT22;8524;57.650;11.926;2023-04-26T02:14:44;5.10;99.90
16814;DHT22;8524;57.650;11.926;2023-04-26T02:17:11;5.10;99.90
16814;DHT22;8524;57.650;11.926;2023-04-26T02:19:39;5.00;99.90
16814;DHT22;8524;57.650;11.926;2023-04-26T02:22:06;4.90;99.90
16814;DHT22;8524;57.650;11.926;2023-04-26T02:24:33;4.80;99.90
16814;DHT22;8524;57.650;11.926;2023-04-26T02:27:00;4.70;99.90
16814;DHT22;8524;57.650;11.926;2023-04-26T02:29:28;4.70;99.90
16814;DHT22;8524;57.650;11.926;2023-04-26T02:31:57;4.70;99.90
16814;DHT22;8524;57.650;11.926;2023-04-26T02:34:24;4.60;99.90
16814;DHT22;8524;57.650;11.926;2023-04-26T02:36:51;4.60;99.90
16814;DHT22;8524;57.650;11.926;2023-04-26T02:39:18;4.70;99.90
16814;DHT22;8524;57.650;11.926;2023-04-26T02:41:45;4.70;99.90
16814;DHT22;8524;57.650;11.926;2023-04-26T02:44:12;4.80;99.90
16814;DHT22;8524;57.650;11.926;2023-04-26T02:46:40;4.70;99.90
16814;DHT22;8524;57.650;11.926;2023-04-26T02:49:08;4.70;99.90
16814;DHT22;8524;57.650;11.926;2023-04-26T02:51:35;4.60;99.90
16814;DHT22;8524;57.650;11.926;2023-04-26T02:54:03;4.60;99.90
16814;DHT22;8524;57.650;11.926;2023-04-26T02:56:30;4.50;99.90
16814;DHT22;8524;57.650;11.926;2023-04-26T02:58:58;4.50;99.90
16814;DHT22;8524;57.650;11.926;2023-04-26T03:01:25;4.40;99.90
16814;DHT22;8524;57.650;11.926;2023-04-26T03:03:52;4.30;99.90
16814;DHT22;8524;57.650;11.926;2023-04-26T03:06:21;4.20;99.90
16814;DHT22;8524;57.650;11.926;2023-04-26T03:08:48;4.30;99.90
16814;DHT22;8524;57.650;11.926;2023-04-26T03:11:15;4.20;99.90
16814;DHT22;8524;57.650;11.926;2023-04-26T03:13:42;4.30;99.90
16814;DHT22;8524;57.650;11.926;2023-04-26T03:16:09;4.40;99.90
16814;DHT22;8524;57.650;11.926;2023-04-26T03:18:36;4.60;99.90
16814;DHT22;8524;57.650;11.926;2023-04-26T03:21:03;4.70;99.90
16814;DHT22;8524;57.650;11.926;2023-04-26T03:23:32;4.80;99.90
16814;DHT22;8524;57.650;11.926;2023-04-26T03:25:59;4.80;99.90
16814;DHT22;8524;57.650;11.926;2023-04-26T03:28:26;4.70;99.90
16814;DHT22;8524;57.650;11.926;2023-04-26T03:30:53;4.80;99.90
16814;DHT22;8524;57.650;11.926;2023-04-26T03:33:20;4.80;99.90
16814;DHT22;8524;57.650;11.926;2023-04-26T03:35:47;4.80;99.90
16814;DHT22;8524;57.650;11.926;2023-04-26T03:38:16;4.70;99.90
16814;DHT22;8524;57.650;11.926;2023-04-26T03:40:44;4.70;99.90
16814;DHT22;8524;57.650;11.926;2023-04-26T03:43:11;4.60;99.90
16814;DHT22;8524;57.650;11.926;2023-04-26T03:45:38;4.50;99.90
16814;DHT22;8524;57.650;11.926;2023-04-26T03:48:05;4.50;99.90
16814;DHT22;8524;57.650;11.926;2023-04-26T03:50:33;4.40;99.90
16814;DHT22;8524;57.650;11.926;2023-04-26T03:53:01;4.50;99.90
16814;DHT22;8524;57.650;11.926;2023-04-26T03:55:28;4.50;99.90
16814;DHT22;8524;57.650;11.926;2023-04-26T03:57:56;4.60;99.90
16814;DHT22;8524;57.650;11.926;2023-04-26T04:00:24;4.60;99.90
16814;DHT22;8524;57.650;11.926;2023-04-26T04:02:51;4.60;99.90
16814;DHT22;8524;57.650;11.926;2023-04-26T04:05:18;4.60;99.90
16814;DHT22;8524;57.650;11.926;2023-04-26T04:07:45;4.60;99.90
16814;DHT22;8524;57.650;11.926;2023-04-26T04:10:12;4.60;99.90
16814;DHT22;8524;57.650;11.926;2023-04-26T04:12:40;4.60;99.90
16814;DHT22;8524;57.650;11.926;2023-04-26T04:15:09;4.60;99.90
16814;DHT22;8524;57.650;11.926;2023-04-26T04:17:36;4.50;99.90
16814;DHT22;8524;57.650;11.926;2023-04-26T04:20:04;4.60;99.90
16814;DHT22;8524;57.650;11.926;2023-04-26T04:22:32;4.90;99.90
16814;DHT22;8524;57.650;11.926;2023-04-26T04:24:59;5.20;99.90
16814;DHT22;8524;57.650;11.926;2023-04-26T04:27:26;5.40;99.90
16814;DHT22;8524;57.650;11.926;2023-04-26T04:29:53;5.60;99.90
16814;DHT22;8524;57.650;11.926;2023-04-26T04:32:22;5.60;99.90
16814;DHT22;8524;57.650;11.926;2023-04-26T04:34:49;5.70;99.90
16814;DHT22;8524;57.650;11.926;2023-04-26T04:37:18;5.70;99.90
16814;DHT22;8524;57.650;11.926;2023-04-26T04:39:45;5.70;99.90
16814;DHT22;8524;57.650;11.926;2023-04-26T04:42:12;5.60;99.90
16814;DHT22;8524;57.650;11.926;2023-04-26T04:44:40;5.70;99.90
16814;DHT22;8524;57.650;11.926;2023-04-26T04:47:07;5.80;99.90
16814;DHT22;8524;57.650;11.926;2023-04-26T04:49:36;5.80;99.90
16814;DHT22;8524;57.650;11.926;2023-04-26T04:52:03;5.90;99.90
16814;DHT22;8524;57.650;11.926;2023-04-26T04:54:31;6.00;99.90
16814;DHT22;8524;57.650;11.926;2023-04-26T04:56:59;6.20;99.90
16814;DHT22;8524;57.650;11.926;2023-04-26T04:59:26;6.30;99.90
16814;DHT22;8524;57.650;11.926;2023-04-26T05:01:53;6.50;99.90
16814;DHT22;8524;57.650;11.926;2023-04-26T05:04:20;6.50;99.90
16814;DHT22;8524;57.650;11.926;2023-04-26T05:06:49;6.70;99.90
16814;DHT22;8524;57.650;11.926;2023-04-26T05:09:16;6.80;99.90
16814;DHT22;8524;57.650;11.926;2023-04-26T05:11:43;6.90;99.90
16814;DHT22;8524;57.650;11.926;2023-04-26T05:14:10;7.10;99.90
16814;DHT22;8524;57.650;11.926;2023-04-26T05:16:37;7.20;99.90
16814;DHT22;8524;57.650;11.926;2023-04-26T05:19:04;7.40;99.90
16814;DHT22;8524;57.650;11.926;2023-04-26T05:21:32;7.60;99.90
16814;DHT22;8524;57.650;11.926;2023-04-26T05:24:00;7.80;99.90
16814;DHT22;8524;57.650;11.926;2023-04-26T05:26:27;7.80;99.90
16814;DHT22;8524;57.650;11.926;2023-04-26T05:28:54;7.70;99.90
16814;DHT22;8524;57.650;11.926;2023-04-26T05:31:21;7.80;99.90
16814;DHT22;8524;57.650;11.926;2023-04-26T05:33:49;8.10;99.90
16814;DHT22;8524;57.650;11.926;2023-04-26T05:36:16;8.20;99.90
16814;DHT22;8524;57.650;11.926;2023-04-26T05:38:43;8.30;99.90
16814;DHT22;8524;57.650;11.926;2023-04-26T05:41:11;8.00;99.90
16814;DHT22;8524;57.650;11.926;2023-04-26T05:43:38;7.40;99.90
16814;DHT22;8524;57.650;11.926;2023-04-26T05:46:06;7.10;99.90
16814;DHT22;8524;57.650;11.926;2023-04-26T05:48:33;6.90;99.90
16814;DHT22;8524;57.650;11.926;2023-04-26T05:50:59;6.60;99.90
16814;DHT22;8524;57.650;11.926;2023-04-26T05:53:27;6.40;99.90
16814;DHT22;8524;57.650;11.926;2023-04-26T05:55:54;6.40;99.90
16814;DHT22;8524;57.650;11.926;2023-04-26T05:58:22;6.40;99.90
16814;DHT22;8524;57.650;11.926;2023-04-26T06:00:49;6.40;99.90
16814;DHT22;8524;57.650;11.926;2023-04-26T06:03:16;6.40;99.90
16814;DHT22;8524;57.650;11.926;2023-04-26T06:05:44;6.50;99.90
16814;DHT22;8524;57.650;11.926;2023-04-26T06:08:11;6.60;99.90
16814;DHT22;8524;57.650;11.926;2023-04-26T06:10:38;6.80;99.90
16814;DHT22;8524;57.650;11.926;2023-04-26T06:13:05;6.90;99.90
16814;DHT22;8524;57.650;11.926;2023-04-26T06:15:33;7.20;99.90
16814;DHT22;8524;57.650;11.926;2023-04-26T06:18:00;7.10;99.90
16814;DHT22;8524;57.650;11.926;2023-04-26T06:20:28;7.00;99.90
16814;DHT22;8524;57.650;11.926;2023-04-26T06:22:55;6.80;99.90
16814;DHT22;8524;57.650;11.926;2023-04-26T06:25:22;7.10;99.90
16814;DHT22;8524;57.650;11.926;2023-04-26T06:27:49;7.70;99.90
16814;DHT22;8524;57.650;11.926;2023-04-26T06:30:16;8.20;99.90
16814;DHT22;8524;57.650;11.926;2023-04-26T06:32:45;8.80;99.90
16814;DHT22;8524;57.650;11.926;2023-04-26T06:35:12;9.20;99.90
16814;DHT22;8524;57.650;11.926;2023-04-26T06:37:39;9.30;99.90
16814;DHT22;8524;57.650;11.926;2023-04-26T06:40:07;9.50;99.90
16814;DHT22;8524;57.650;11.926;2023-04-26T06:42:35;9.90;99.90
16814;DHT22;8524;57.650;11.926;2023-04-26T06:45:03;10.30;99.90
16814;DHT22;8524;57.650;11.926;2023-04-26T06:47:31;10.30;99.90
16814;DHT22;8524;57.650;11.926;2023-04-26T06:49:59;10.30;99.90
16814;DHT22;8524;57.650;11.926;2023-04-26T06:52:27;10.00;99.90
16814;DHT22;8524;57.650;11.926;2023-04-26T06:54:55;9.30;99.90
16814;DHT22;8524;57.650;11.926;2023-04-26T06:57:22;9.40;99.90
16814;DHT22;8524;57.650;11.926;2023-04-26T06:59:49;9.50;99.90
16814;DHT22;8524;57.650;11.926;2023-04-26T07:02:16;9.60;99.90
16814;DHT22;8524;57.650;11.926;2023-04-26T07:04:43;9.50;99.90
16814;DHT22;8524;57.650;11.926;2023-04-26T07:07:11;9.50;99.90
16814;DHT22;8524;57.650;11.926;2023-04-26T07:09:39;9.60;99.90
16814;DHT22;8524;57.650;11.926;2023-04-26T07:12:06;9.80;99.90
16814;DHT22;8524;57.650;11.926;2023-04-26T07:14:33;9.50;99.90
16814;DHT22;8524;57.650;11.926;2023-04-26T07:17:05;9.40;99.90
16814;DHT22;8524;57.650;11.926;2023-04-26T07:19:32;9.50;99.90
16814;DHT22;8524;57.650;11.926;2023-04-26T07:21:59;9.60;99.90
16814;DHT22;8524;57.650;11.926;2023-04-26T07:24:27;9.80;99.90
16814;DHT22;8524;57.650;11.926;2023-04-26T07:26:55;10.00;99.90
16814;DHT22;8524;57.650;11.926;2023-04-26T07:29:22;10.00;99.90
16814;DHT22;8524;57.650;11.926;2023-04-26T07:31:50;9.90;99.90
16814;DHT22;8524;57.650;11.926;2023-04-26T07:34:23;10.00;99.90
16814;DHT22;8524;57.650;11.926;2023-04-26T07:36:51;10.00;99.90
16814;DHT22;8524;57.650;11.926;2023-04-26T07:39:18;10.30;99.90
16814;DHT22;8524;57.650;11.926;2023-04-26T07:41:46;10.50;99.90
16814;DHT22;8524;57.650;11.926;2023-04-26T07:44:17;10.80;99.90
16814;DHT22;8524;57.650;11.926;2023-04-26T07:46:44;10.70;99.90
16814;DHT22;8524;57.650;11.926;2023-04-26T07:49:12;10.70;99.90
16814;DHT22;8524;57.650;11.926;2023-04-26T07:51:42;10.80;99.90
16814;DHT22;8524;57.650;11.926;2023-04-26T07:54:09;10.90;99.90
16814;DHT22;8524;57.650;11.926;2023-04-26T07:56:39;10.70;99.90
16814;DHT22;8524;57.650;11.926;2023-04-26T07:59:08;10.70;99.90
16814;DHT22;8524;57.650;11.926;2023-04-26T08:01:35;10.60;99.90
16814;DHT22;8524;57.650;11.926;2023-04-26T08:04:02;10.30;99.90
16814;DHT22;8524;57.650;11.926;2023-04-26T08:06:29;10.50;99.90
16814;DHT22;8524;57.650;11.926;2023-04-26T08:08:56;10.90;99.90
16814;DHT22;8524;57.650;11.926;2023-04-26T08:11:23;11.10;99.90
16814;DHT22;8524;57.650;11.926;2023-04-26T08:13:50;11.00;99.90
16814;DHT22;8524;57.650;11.926;2023-04-26T08:16:19;11.10;99.90
16814;DHT22;8524;57.650;11.926;2023-04-26T08:18:46;11.40;99.90
16814;DHT22;8524;57.650;11.926;2023-04-26T08:21:13;11.50;99.90
16814;DHT22;8524;57.650;11.926;2023-04-26T08:23:40;11.30;99.90
16814;DHT22;8524;57.650;11.926;2023-04-26T08:26:07;10.70;99.90
16814;DHT22;8524;57.650;11.926;2023-04-26T08:28:34;10.40;99.90
16814;DHT22;8524;57.650;11.926;2023-04-26T08:31:02;10.10;99.90
16814;DHT22;8524;57.650;11.926;2023-04-26T08:33:31;9.80;99.90
16814;DHT22;8524;57.650;11.926;2023-04-26T08:35:58;10.00;99.90
16814;DHT22;8524;57.650;11.926;2023-04-26T08:38:26;10.40;99.90
16814;DHT22;8524;57.650;11.926;2023-04-26T08:40:54;10.60;99.90
16814;DHT22;8524;57.650;11.926;2023-04-26T08:43:27;10.10;99.90
16814;DHT22;8524;57.650;11.926;2023-04-26T08:45:54;9.90;99.90
16814;DHT22;8524;57.650;11.926;2023-04-26T08:48:23;9.80;99.90
16814;DHT22;8524;57.650;11.926;2023-04-26T08:50:53;9.80;99.90
16814;DHT22;8524;57.650;11.926;2023-04-26T08:53:21;10.20;99.90
16814;DHT22;8524;57.650;11.926;2023-04-26T08:55:48;10.60;99.90
16814;DHT22;8524;57.650;11.926;2023-04-26T08:58:16;10.50;99.90
16814;DHT22;8524;57.650;11.926;2023-04-26T09:00:44;11.10;99.90
16814;DHT22;8524;57.650;11.926;2023-04-26T09:03:11;11.20;99.90
16814;DHT22;8524;57.650;11.926;2023-04-26T09:05:39;11.40;99.90
16814;DHT22;8524;57.650;11.926;2023-04-26T09:08:13;11.30;99.90
16814;DHT22;8524;57.650;11.926;2023-04-26T09:10:41;11.10;99.90
16814;DHT22;8524;57.650;11.926;2023-04-26T09:13:09;11.40;99.90
16814;DHT22;8524;57.650;11.926;2023-04-26T09:15:37;11.30;99.90
16814;DHT22;8524;57.650;11.926;2023-04-26T09:18:18;11.50;99.90
16814;DHT22;8524;57.650;11.926;2023-04-26T09:20:45;11.30;99.90
16814;DHT22;8524;57.650;11.926;2023-04-26T09:23:28;11.00;99.90
16814;DHT22;8524;57.650;11.926;2023-04-26T09:26:13;10.60;99.90
16814;DHT22;8524;57.650;11.926;2023-04-26T09:28:41;10.60;99.90
16814;DHT22;8524;57.650;11.926;2023-04-26T09:31:08;10.40;99.90
16814;DHT22;8524;57.650;11.926;2023-04-26T09:33:36;10.70;99.90
16814;DHT22;8524;57.650;11.926;2023-04-26T09:36:23;11.10;99.90
16814;DHT22;8524;57.650;11.926;2023-04-26T09:38:51;11.60;99.90
16814;DHT22;8524;57.650;11.926;2023-04-26T09:41:18;11.90;99.90
16814;DHT22;8524;57.650;11.926;2023-04-26T09:43:47;11.90;99.90
16814;DHT22;8524;57.650;11.926;2023-04-26T09:46:21;11.90;99.90
16814;DHT22;8524;57.650;11.926;2023-04-26T09:48:59;12.20;99.90
16814;DHT22;8524;57.650;11.926;2023-04-26T09:51:27;12.10;99.90
16814;DHT22;8524;57.650;11.926;2023-04-26T09:53:56;11.80;99.90
16814;DHT22;8524;57.650;11.926;2023-04-26T09:56:23;11.40;99.90
16814;DHT22;8524;57.650;11.926;2023-04-26T09:58:57;11.40;99.90
16814;DHT22;8524;57.650;11.926;2023-04-26T10:01:27;11.50;99.90
16814;DHT22;8524;57.650;11.926;2023-04-26T10:03:54;11.70;99.90
16814;DHT22;8524;57.650;11.926;2023-04-26T10:06:23;11.80;99.90
16814;DHT22;8524;57.650;11.926;2023-04-26T10:08:51;11.10;99.90
16814;DHT22;8524;57.650;11.926;2023-04-26T10:11:20;11.20;99.90
16814;DHT22;8524;57.650;11.926;2023-04-26T10:13:49;11.40;99.90
16814;DHT22;8524;57.650;11.926;2023-04-26T10:16:16;11.30;99.90
16814;DHT22;8524;57.650;11.926;2023-04-26T10:18:44;11.60;99.90
16814;DHT22;8524;57.650;11.926;2023-04-26T10:21:13;12.00;99.90
16814;DHT22;8524;57.650;11.926;2023-04-26T10:23:42;12.00;99.90
16814;DHT22;8524;57.650;11.926;2023-04-26T10:29:11;12.20;99.90
16814;DHT22;8524;57.650;11.926;2023-04-26T10:32:07;12.20;99.90
16814;DHT22;8524;57.650;11.926;2023-04-26T10:34:35;11.80;99.90
16814;DHT22;8524;57.650;11.926;2023-04-26T10:37:07;11.90;99.90
16814;DHT22;8524;57.650;11.926;2023-04-26T10:39:34;11.90;99.90
16814;DHT22;8524;57.650;11.926;2023-04-26T10:42:22;11.80;99.90
16814;DHT22;8524;57.650;11.926;2023-04-26T10:44:52;11.60;99.90
16814;DHT22;8524;57.650;11.926;2023-04-26T10:47:26;11.30;99.90
16814;DHT22;8524;57.650;11.926;2023-04-26T10:50:04;11.20;99.90
16814;DHT22;8524;57.650;11.926;2023-04-26T10:52:33;11.20;99.90
16814;DHT22;8524;57.650;11.926;2023-04-26T10:55:01;11.20;99.90
16814;DHT22;8524;57.650;11.926;2023-04-26T10:57:49;11.60;99.90
16814;DHT22;8524;57.650;11.926;2023-04-26T11:00:26;11.60;99.90
16814;DHT22;8524;57.650;11.926;2023-04-26T11:03:00;11.80;99.90
16814;DHT22;8524;57.650;11.926;2023-04-26T11:05:40;11.80;99.90
16814;DHT22;8524;57.650;11.926;2023-04-26T11:08:15;11.30;99.90
16814;DHT22;8524;57.650;11.926;2023-04-26T11:10:44;11.30;99.90
16814;DHT22;8524;57.650;11.926;2023-04-26T11:13:11;11.30;99.90
16814;DHT22;8524;57.650;11.926;2023-04-26T11:15:40;11.60;99.90
16814;DHT22;8524;57.650;11.926;2023-04-26T11:18:07;11.90;99.90
16814;DHT22;8524;57.650;11.926;2023-04-26T11:20:34;11.70;99.90
16814;DHT22;8524;57.650;11.926;2023-04-26T11:23:01;11.50;99.90
16814;DHT22;8524;57.650;11.926;2023-04-26T11:25:32;11.60;99.90
16814;DHT22;8524;57.650;11.926;2023-04-26T11:27:59;11.70;99.90
16814;DHT22;8524;57.650;11.926;2023-04-26T11:30:30;11.50;99.90
16814;DHT22;8524;57.650;11.926;2023-04-26T11:32:59;11.80;99.90
16814;DHT22;8524;57.650;11.926;2023-04-26T11:35:26;11.40;99.90
16814;DHT22;8524;57.650;11.926;2023-04-26T11:37:57;10.90;99.90
16814;DHT22;8524;57.650;11.926;2023-04-26T11:40:27;11.50;99.90
16814;DHT22;8524;57.650;11.926;2023-04-26T11:42:58;11.90;99.90
16814;DHT22;8524;57.650;11.926;2023-04-26T11:45:26;11.80;99.90
16814;DHT22;8524;57.650;11.926;2023-04-26T11:47:54;11.70;99.90
16814;DHT22;8524;57.650;11.926;2023-04-26T11:50:24;11.30;99.90
16814;DHT22;8524;57.650;11.926;2023-04-26T11:52:53;10.60;99.90
16814;DHT22;8524;57.650;11.926;2023-04-26T11:55:23;10.50;99.90
16814;DHT22;8524;57.650;11.926;2023-04-26T11:57:51;10.80;99.90
16814;DHT22;8524;57.650;11.926;2023-04-26T12:00:18;10.60;99.90
16814;DHT22;8524;57.650;11.926;2023-04-26T12:02:46;10.90;99.90
16814;DHT22;8524;57.650;11.926;2023-04-26T12:05:23;11.00;99.90
16814;DHT22;8524;57.650;11.926;2023-04-26T12:07:51;10.90;99.90
16814;DHT22;8524;57.650;11.926;2023-04-26T12:10:19;10.80;99.90
16814;DHT22;8524;57.650;11.926;2023-04-26T12:12:48;11.00;99.90
16814;DHT22;8524;57.650;11.926;2023-04-26T12:15:16;11.50;99.90
16814;DHT22;8524;57.650;11.926;2023-04-26T12:17:57;11.40;98.80
16814;DHT22;8524;57.650;11.926;2023-04-26T12:20:31;11.50;98.00
16814;DHT22;8524;57.650;11.926;2023-04-26T12:22:59;11.50;99.10
16814;DHT22;8524;57.650;11.926;2023-04-26T12:25:27;11.20;99.90
16814;DHT22;8524;57.650;11.926;2023-04-26T12:27:54;11.30;99.90
16814;DHT22;8524;57.650;11.926;2023-04-26T12:30:22;11.40;99.90
16814;DHT22;8524;57.650;11.926;2023-04-26T12:32:49;11.60;99.60
16814;DHT22;8524;57.650;11.926;2023-04-26T12:35:16;11.40;99.80
16814;DHT22;8524;57.650;11.926;2023-04-26T12:37:45;11.30;99.00
16814;DHT22;8524;57.650;11.926;2023-04-26T12:40:12;11.10;99.60
16814;DHT22;8524;57.650;11.926;2023-04-26T12:42:41;11.10;99.90
16814;DHT22;8524;57.650;11.926;2023-04-26T12:45:08;11.00;99.90
16814;DHT22;8524;57.650;11.926;2023-04-26T12:47:36;11.30;99.90
16814;DHT22;8524;57.650;11.926;2023-04-26T12:50:04;11.20;96.70
16814;DHT22;8524;57.650;11.926;2023-04-26T12:52:31;11.20;99.90
16814;DHT22;8524;57.650;11.926;2023-04-26T12:55:00;11.20;99.90
16814;DHT22;8524;57.650;11.926;2023-04-26T12:57:29;11.30;99.90
16814;DHT22;8524;57.650;11.926;2023-04-26T12:59:56;11.20;97.80
16814;DHT22;8524;57.650;11.926;2023-04-26T13:02:23;11.40;98.70
16814;DHT22;8524;57.650;11.926;2023-04-26T13:04:50;11.20;96.80
16814;DHT22;8524;57.650;11.926;2023-04-26T13:07:17;11.20;98.20
16814;DHT22;8524;57.650;11.926;2023-04-26T13:09:45;11.40;97.70
16814;DHT22;8524;57.650;11.926;2023-04-26T13:12:14;11.60;99.50
16814;DHT22;8524;57.650;11.926;2023-04-26T13:14:42;11.50;99.20
16814;DHT22;8524;57.650;11.926;2023-04-26T13:17:09;11.60;97.50
16814;DHT22;8524;57.650;11.926;2023-04-26T13:19:36;11.60;96.10
16814;DHT22;8524;57.650;11.926;2023-04-26T13:22:04;11.70;96.60
16814;DHT22;8524;57.650;11.926;2023-04-26T13:24:33;11.80;96.70
16814;DHT22;8524;57.650;11.926;2023-04-26T13:27:00;12.00;94.40
16814;DHT22;8524;57.650;11.926;2023-04-26T13:29:29;12.20;93.00
16814;DHT22;8524;57.650;11.926;2023-04-26T13:31:57;12.00;94.10
16814;DHT22;8524;57.650;11.926;2023-04-26T13:34:25;12.00;91.00
16814;DHT22;8524;57.650;11.926;2023-04-26T13:36:53;12.00;94.30
16814;DHT22;8524;57.650;11.926;2023-04-26T13:39:21;12.00;92.30
16814;DHT22;8524;57.650;11.926;2023-04-26T13:41:50;11.80;95.10
16814;DHT22;8524;57.650;11.926;2023-04-26T13:44:18;11.70;92.90
16814;DHT22;8524;57.650;11.926;2023-04-26T13:46:47;11.70;95.40
16814;DHT22;8524;57.650;11.926;2023-04-26T13:49:14;11.80;94.30
16814;DHT22;8524;57.650;11.926;2023-04-26T13:51:41;12.00;94.10
16814;DHT22;8524;57.650;11.926;2023-04-26T13:54:09;12.00;92.50
16814;DHT22;8524;57.650;11.926;2023-04-26T13:56:36;11.90;92.10
16814;DHT22;8524;57.650;11.926;2023-04-26T13:59:04;11.50;94.50
16814;DHT22;8524;57.650;11.926;2023-04-26T14:01:33;11.50;93.50
16814;DHT22;8524;57.650;11.926;2023-04-26T14:04:03;11.40;96.30
16814;DHT22;8524;57.650;11.926;2023-04-26T14:06:30;11.30;97.20
16814;DHT22;8524;57.650;11.926;2023-04-26T14:08:58;11.40;93.40
16814;DHT22;8524;57.650;11.926;2023-04-26T14:11:26;11.60;95.10
16814;DHT22;8524;57.650;11.926;2023-04-26T14:13:53;11.70;92.50
16814;DHT22;8524;57.650;11.926;2023-04-26T14:16:22;11.80;95.20
16814;DHT22;8524;57.650;11.926;2023-04-26T14:18:49;11.60;87.90
16814;DHT22;8524;57.650;11.926;2023-04-26T14:21:18;11.80;90.30
16814;DHT22;8524;57.650;11.926;2023-04-26T14:23:45;11.90;93.40
16814;DHT22;8524;57.650;11.926;2023-04-26T14:26:12;12.10;92.80
16814;DHT22;8524;57.650;11.926;2023-04-26T14:28:39;12.10;89.20
16814;DHT22;8524;57.650;11.926;2023-04-26T14:31:06;12.10;92.60
16814;DHT22;8524;57.650;11.926;2023-04-26T14:33:34;12.20;93.10
16814;DHT22;8524;57.650;11.926;2023-04-26T14:36:01;12.30;91.90
16814;DHT22;8524;57.650;11.926;2023-04-26T14:38:30;12.40;87.70
16814;DHT22;8524;57.650;11.926;2023-04-26T14:40:57;12.50;93.60
16814;DHT22;8524;57.650;11.926;2023-04-26T14:43:24;12.30;93.20
16814;DHT22;8524;57.650;11.926;2023-04-26T14:45:51;12.20;95.30
16814;DHT22;8524;57.650;11.926;2023-04-26T14:48:18;12.20;96.30
16814;DHT22;8524;57.650;11.926;2023-04-26T14:50:45;12.30;93.20
16814;DHT22;8524;57.650;11.926;2023-04-26T14:53:12;12.30;94.00
16814;DHT22;8524;57.650;11.926;2023-04-26T14:55:42;12.10;93.10
16814;DHT22;8524;57.650;11.926;2023-04-26T14:58:08;12.00;92.70
16814;DHT22;8524;57.650;11.926;2023-04-26T15:00:36;11.80;94.20
16814;DHT22;8524;57.650;11.926;2023-04-26T15:03:04;11.90;96.30
16814;DHT22;8524;57.650;11.926;2023-04-26T15:05:31;11.80;95.20
16814;DHT22;8524;57.650;11.926;2023-04-26T15:07:58;11.90;91.70
16814;DHT22;8524;57.650;11.926;2023-04-26T15:10:25;12.00;94.10
16814;DHT22;8524;57.650;11.926;2023-04-26T15:12:54;12.20;93.30
16814;DHT22;8524;57.650;11.926;2023-04-26T15:15:21;12.40;89.10
16814;DHT22;8524;57.650;11.926;2023-04-26T15:17:49;12.50;86.30
16814;DHT22;8524;57.650;11.926;2023-04-26T15:20:16;12.40;87.60
16814;DHT22;8524;57.650;11.926;2023-04-26T15:22:43;12.40;92.10
16814;DHT22;8524;57.650;11.926;2023-04-26T15:25:10;12.40;90.50
16814;DHT22;8524;57.650;11.926;2023-04-26T15:27:37;12.40;90.10
16814;DHT22;8524;57.650;11.926;2023-04-26T15:30:07;12.30;90.40
16814;DHT22;8524;57.650;11.926;2023-04-26T15:32:34;12.20;90.50
16814;DHT22;8524;57.650;11.926;2023-04-26T15:35:01;11.90;89.70
16814;DHT22;8524;57.650;11.926;2023-04-26T15:37:30;11.70;94.70
16814;DHT22;8524;57.650;11.926;2023-04-26T15:39:57;11.70;97.70
16814;DHT22;8524;57.650;11.926;2023-04-26T15:42:24;11.80;99.90
16814;DHT22;8524;57.650;11.926;2023-04-26T15:44:51;11.80;99.90
16814;DHT22;8524;57.650;11.926;2023-04-26T15:47:19;12.00;99.90